createdAt,value
2022-09-01T00:00:02.660Z,92.06
2022-09-01T00:02:34.810Z,92.19
2022-09-01T00:05:04.744Z,91.65
2022-09-01T00:07:34.712Z,92.21
2022-09-01T00:10:08.484Z,93.15
2022-09-01T00:12:37.655Z,93.78
2022-09-01T00:15:08.739Z,95.48
2022-09-01T00:17:37.310Z,96.13
2022-09-01T00:20:06.316Z,96.37
2022-09-01T00:22:34.748Z,96.89
2022-09-01T00:25:06.017Z,97.17
2022-09-01T00:27:34.255Z,96.91
2022-09-01T00:30:02.932Z,97.65
2022-09-01T00:32:31.366Z,97.19
2022-09-01T00:34:59.788Z,97.85
2022-09-01T00:37:28.102Z,98.30
2022-09-01T00:39:56.459Z,98.28
2022-09-01T00:42:26.404Z,98.79
2022-09-01T00:44:54.664Z,98.65
2022-09-01T00:47:22.906Z,99.15
2022-09-01T00:49:52.682Z,98.84
2022-09-01T00:52:24.175Z,98.27
2022-09-01T00:54:55.850Z,98.21
2022-09-01T00:57:26.500Z,98.16
2022-09-01T01:00:00.421Z,97.85
2022-09-01T01:02:29.026Z,98.25
2022-09-01T01:05:00.739Z,98.23
2022-09-01T01:07:30.279Z,98.52
2022-09-01T01:09:58.735Z,98.29
2022-09-01T01:12:30.807Z,98.32
2022-09-01T01:14:59.117Z,98.23
2022-09-01T01:17:27.770Z,98.32
2022-09-01T01:20:14.816Z,98.47
2022-09-01T01:23:06.463Z,97.91
2022-09-01T01:25:42.994Z,98.77
2022-09-01T01:28:15.522Z,98.82
2022-09-01T01:30:51.134Z,98.35
2022-09-01T01:33:20.818Z,97.18
2022-09-01T01:35:50.694Z,97.33
2022-09-01T01:38:20.899Z,97.13
2022-09-01T01:40:56.000Z,97.35
2022-09-01T01:43:27.628Z,97.10
2022-09-01T01:45:59.295Z,96.42
2022-09-01T01:48:34.783Z,96.05
2022-09-01T01:51:04.602Z,96.35
2022-09-01T01:53:34.474Z,97.21
2022-09-01T01:56:06.317Z,96.48
2022-09-01T01:58:37.117Z,95.39
2022-09-01T02:01:11.930Z,95.21
2022-09-01T02:03:40.879Z,95.05
2022-09-01T02:06:11.934Z,95.01
2022-09-01T02:08:42.083Z,94.50
2022-09-01T02:11:13.299Z,94.96
2022-09-01T02:13:41.589Z,94.81
2022-09-01T02:16:12.908Z,94.49
2022-09-01T02:18:44.421Z,95.08
2022-09-01T02:21:18.558Z,94.20
2022-09-01T02:23:48.802Z,94.63
2022-09-01T02:26:19.130Z,95.35
2022-09-01T02:28:54.828Z,94.59
2022-09-01T02:31:29.006Z,94.67
2022-09-01T02:34:01.217Z,95.49
2022-09-01T02:36:32.923Z,95.46
2022-09-01T02:39:02.309Z,95.59
2022-09-01T02:41:34.618Z,96.66
2022-09-01T02:44:05.857Z,96.06
2022-09-01T02:46:34.647Z,96.31
2022-09-01T02:49:04.581Z,96.49
2022-09-01T02:51:34.623Z,96.36
2022-09-01T02:54:03.060Z,97.00
2022-09-01T02:56:32.797Z,97.77
2022-09-01T02:59:03.206Z,97.36
2022-09-01T03:01:33.316Z,97.54
2022-09-01T03:04:05.721Z,98.23
2022-09-01T03:06:36.537Z,98.36
2022-09-01T03:09:08.582Z,97.96
2022-09-01T03:11:44.563Z,98.54
2022-09-01T03:14:13.377Z,98.93
2022-09-01T03:16:42.251Z,98.68
2022-09-01T03:19:12.021Z,98.23
2022-09-01T03:21:44.643Z,98.64
2022-09-01T03:24:17.876Z,98.22
2022-09-01T03:26:50.321Z,98.85
2022-09-01T03:29:20.737Z,98.75
2022-09-01T03:31:48.980Z,99.20
2022-09-01T03:34:20.799Z,99.09
2022-09-01T03:36:51.220Z,98.73
2022-09-01T03:39:27.890Z,99.35
2022-09-01T03:41:58.948Z,99.40
2022-09-01T03:44:28.544Z,99.48
2022-09-01T03:46:58.490Z,99.93
2022-09-01T03:49:28.783Z,100.64
2022-09-01T03:51:58.762Z,100.45
2022-09-01T03:54:30.618Z,100.61
2022-09-01T03:57:00.648Z,100.93
2022-09-01T03:59:30.593Z,101.18
2022-09-01T04:02:00.429Z,101.01
2022-09-01T04:04:31.528Z,100.93
2022-09-01T04:07:01.085Z,101.48
2022-09-01T04:09:30.704Z,101.60
2022-09-01T04:12:00.342Z,101.55
2022-09-01T04:14:29.870Z,101.35
2022-09-01T04:17:16.137Z,101.96
2022-09-01T04:19:44.522Z,101.67
2022-09-01T04:22:14.376Z,101.63
2022-09-01T04:24:46.925Z,101.80
2022-09-01T04:27:22.012Z,101.96
2022-09-01T04:29:50.351Z,102.02
2022-09-01T04:32:21.788Z,102.31
2022-09-01T04:34:54.201Z,101.96
2022-09-01T04:37:23.772Z,102.12
2022-09-01T04:39:57.499Z,102.00
2022-09-01T04:42:32.708Z,101.99
2022-09-01T04:45:11.281Z,102.43
2022-09-01T04:47:45.560Z,102.22
2022-09-01T04:50:18.277Z,102.38
2022-09-01T04:53:07.154Z,102.58
2022-09-01T04:55:53.715Z,102.47
2022-09-01T04:58:24.888Z,102.40
2022-09-01T05:00:56.002Z,102.44
2022-09-01T05:03:25.283Z,102.26
2022-09-01T05:06:15.557Z,102.34
2022-09-01T05:08:48.393Z,102.45
2022-09-01T05:11:27.948Z,102.37
2022-09-01T05:14:07.074Z,102.67
2022-09-01T05:16:37.860Z,102.41
2022-09-01T05:19:06.516Z,101.93
2022-09-01T05:21:40.243Z,102.28
2022-09-01T05:24:09.105Z,102.38
2022-09-01T05:26:38.552Z,102.83
2022-09-01T05:29:13.403Z,102.51
2022-09-01T05:31:44.582Z,102.41
2022-09-01T05:34:14.521Z,102.51
2022-09-01T05:36:46.300Z,102.88
2022-09-01T05:39:14.975Z,102.38
2022-09-01T05:41:45.914Z,102.28
2022-09-01T05:44:17.241Z,102.18
2022-09-01T05:46:47.579Z,102.18
2022-09-01T05:49:18.913Z,102.50
2022-09-01T05:51:52.512Z,102.19
2022-09-01T05:54:27.494Z,102.51
2022-09-01T05:57:12.758Z,102.55
2022-09-01T05:59:53.942Z,102.31
2022-09-01T06:02:27.674Z,102.73
2022-09-01T06:05:00.383Z,102.65
2022-09-01T06:07:33.940Z,101.86
2022-09-01T06:10:03.539Z,102.60
2022-09-01T06:12:32.155Z,102.43
2022-09-01T06:15:02.083Z,102.15
2022-09-01T06:17:31.933Z,102.65
2022-09-01T06:20:10.730Z,102.23
2022-09-01T06:22:42.099Z,102.12
2022-09-01T06:25:11.549Z,102.43
2022-09-01T06:27:44.959Z,102.43
2022-09-01T06:30:23.880Z,102.73
2022-09-01T06:33:11.045Z,102.60
2022-09-01T06:35:43.955Z,102.15
2022-09-01T06:38:17.976Z,101.89
2022-09-01T06:40:49.138Z,101.53
2022-09-01T06:43:20.584Z,101.83
2022-09-01T06:45:55.049Z,101.86
2022-09-01T06:48:25.833Z,101.86
2022-09-01T06:51:21.082Z,101.73
2022-09-01T06:53:59.512Z,101.32
2022-09-01T06:56:34.089Z,101.41
2022-09-01T06:59:10.289Z,101.63
2022-09-01T07:01:41.507Z,101.44
2022-09-01T07:04:13.867Z,101.49
2022-09-01T07:06:59.664Z,101.18
2022-09-01T07:10:05.838Z,101.50
2022-09-01T07:13:04.812Z,101.07
2022-09-01T07:18:28.487Z,100.25
2022-09-01T07:24:06.063Z,99.48
2022-09-01T07:29:26.458Z,99.13
2022-09-01T07:34:47.591Z,98.87
2022-09-01T07:43:08.330Z,97.50
2022-09-01T07:46:00.465Z,97.45
2022-09-01T07:49:02.700Z,97.71
2022-09-01T07:51:38.577Z,97.49
2022-09-01T07:54:08.747Z,96.71
2022-09-01T07:56:40.241Z,96.06
2022-09-01T07:59:15.011Z,95.75
2022-09-01T08:02:10.362Z,96.04
2022-09-01T08:04:40.160Z,96.80
2022-09-01T08:07:16.058Z,95.69
2022-09-01T08:09:45.298Z,97.84
2022-09-01T08:12:15.633Z,96.49
2022-09-01T08:15:12.748Z,95.41
2022-09-01T08:17:57.306Z,95.16
2022-09-01T08:20:28.375Z,94.29
2022-09-01T08:23:20.753Z,94.38
2022-09-01T08:25:50.675Z,93.80
2022-09-01T08:28:26.581Z,94.62
2022-09-01T08:30:56.353Z,93.29
2022-09-01T08:33:26.478Z,93.74
2022-09-01T08:35:57.138Z,93.27
2022-09-01T08:38:28.968Z,92.66
2022-09-01T08:41:00.130Z,93.58
2022-09-01T08:43:45.269Z,92.08
2022-09-01T08:46:19.718Z,90.78
2022-09-01T08:52:09.160Z,90.59
2022-09-01T08:54:45.575Z,89.47
2022-09-01T08:57:20.255Z,89.54
2022-09-01T09:00:29.573Z,89.10
2022-09-01T09:03:18.200Z,88.60
2022-09-01T09:06:02.997Z,88.81
2022-09-01T09:08:46.744Z,87.18
2022-09-01T09:11:34.745Z,88.38
2022-09-01T09:14:12.415Z,88.73
2022-09-01T09:16:43.817Z,86.96
2022-09-01T09:19:19.217Z,86.20
2022-09-01T09:21:49.409Z,86.02
2022-09-01T09:24:28.047Z,86.14
2022-09-01T09:27:07.089Z,87.63
2022-09-01T09:29:38.155Z,85.58
2022-09-01T09:32:22.433Z,84.24
2022-09-01T09:34:51.790Z,84.65
2022-09-01T09:37:29.467Z,84.64
2022-09-01T09:40:15.057Z,83.78
2022-09-01T09:43:03.124Z,83.92
2022-09-01T09:45:34.553Z,84.64
2022-09-01T09:48:07.861Z,83.49
2022-09-01T09:50:42.091Z,82.67
2022-09-01T09:53:19.604Z,81.55
2022-09-01T09:56:00.835Z,83.16
2022-09-01T09:58:37.290Z,82.12
2022-09-01T10:01:17.663Z,83.44
2022-09-01T10:03:49.090Z,80.58
2022-09-01T10:06:32.877Z,81.14
2022-09-01T10:09:02.478Z,80.60
2022-09-01T10:11:41.292Z,79.28
2022-09-01T10:14:47.633Z,78.92
2022-09-01T10:17:13.346Z,78.72
2022-09-01T10:19:49.344Z,79.42
2022-09-01T10:22:17.817Z,79.20
2022-09-01T10:24:50.101Z,78.75
2022-09-01T10:27:23.054Z,78.66
2022-09-01T10:30:14.199Z,76.97
2022-09-01T10:32:55.003Z,76.74
2022-09-01T10:35:28.276Z,76.62
2022-09-01T10:38:00.006Z,76.00
2022-09-01T10:40:43.840Z,75.94
2022-09-01T10:43:37.820Z,77.85
2022-09-01T10:46:48.834Z,77.92
2022-09-01T10:49:52.729Z,74.72
2022-09-01T10:52:56.060Z,72.78
2022-09-01T10:55:27.105Z,72.43
2022-09-01T10:58:09.271Z,72.44
2022-09-01T11:04:02.689Z,70.95
2022-09-01T11:07:14.671Z,69.55
2022-09-01T11:09:44.851Z,69.74
2022-09-01T11:12:37.039Z,70.82
2022-09-01T11:15:08.581Z,71.43
2022-09-01T11:17:39.498Z,70.55
2022-09-01T11:20:13.654Z,72.03
2022-09-01T11:22:43.818Z,69.59
2022-09-01T11:25:40.656Z,68.75
2022-09-01T11:28:12.186Z,68.86
2022-09-01T11:30:51.978Z,70.67
2022-09-01T11:33:32.450Z,66.91
2022-09-01T11:36:05.563Z,66.22
2022-09-01T11:38:45.004Z,68.40
2022-09-01T11:41:34.138Z,66.13
2022-09-01T11:44:04.899Z,65.75
2022-09-01T11:46:35.749Z,66.93
2022-09-01T11:49:08.433Z,65.96
2022-09-01T11:51:47.308Z,66.57
2022-09-01T11:54:17.131Z,68.19
2022-09-01T11:56:45.529Z,65.88
2022-09-01T11:59:13.807Z,64.86
2022-09-01T12:01:42.476Z,68.33
2022-09-01T12:04:27.544Z,67.36
2022-09-01T12:07:02.304Z,68.12
2022-09-01T12:09:39.765Z,68.53
2022-09-01T12:12:29.592Z,71.97
2022-09-01T12:15:06.216Z,67.84
2022-09-01T12:17:35.568Z,67.43
2022-09-01T12:20:31.033Z,67.63
2022-09-01T12:23:02.339Z,67.40
2022-09-01T12:25:33.050Z,65.14
2022-09-01T12:28:02.106Z,65.54
2022-09-01T12:30:35.355Z,65.64
2022-09-01T12:33:23.462Z,64.89
2022-09-01T12:35:56.079Z,65.24
2022-09-01T12:38:31.052Z,65.40
2022-09-01T12:40:59.991Z,68.09
2022-09-01T12:43:33.749Z,68.21
2022-09-01T12:46:04.852Z,68.68
2022-09-01T12:48:35.339Z,67.35
2022-09-01T12:51:09.399Z,65.78
2022-09-01T12:53:38.152Z,63.91
2022-09-01T12:56:19.016Z,64.78
2022-09-01T12:58:53.994Z,63.53
2022-09-01T13:01:29.948Z,63.61
2022-09-01T13:04:12.456Z,63.58
2022-09-01T13:06:41.867Z,65.16
2022-09-01T13:09:10.382Z,66.84
2022-09-01T13:14:27.635Z,63.42
2022-09-01T13:16:57.899Z,63.55
2022-09-01T13:19:30.205Z,62.08
2022-09-01T13:21:59.454Z,62.72
2022-09-01T13:24:31.432Z,63.60
2022-09-01T13:29:49.442Z,64.21
2022-09-01T13:32:21.593Z,65.46
2022-09-01T13:34:52.720Z,66.15
2022-09-01T13:37:22.533Z,67.59
2022-09-01T13:39:51.269Z,65.77
2022-09-01T13:42:20.190Z,62.83
2022-09-01T13:44:52.565Z,62.94
2022-09-01T13:47:29.806Z,63.85
2022-09-01T13:50:08.219Z,63.88
2022-09-01T13:52:37.841Z,60.83
2022-09-01T13:55:08.467Z,61.72
2022-09-01T13:57:37.145Z,61.07
2022-09-01T14:00:10.847Z,63.51
2022-09-01T14:02:42.262Z,61.46
2022-09-01T14:05:11.400Z,63.14
2022-09-01T14:07:39.698Z,60.83
2022-09-01T14:10:09.148Z,60.23
2022-09-01T14:12:37.582Z,62.74
2022-09-01T14:15:12.324Z,60.03
2022-09-01T14:17:45.039Z,60.57
2022-09-01T14:20:16.297Z,63.50
2022-09-01T14:22:45.402Z,59.56
2022-09-01T14:25:14.650Z,59.33
2022-09-01T14:27:44.640Z,62.41
2022-09-01T14:30:16.492Z,63.22
2022-09-01T14:32:46.923Z,61.96
2022-09-01T14:35:16.705Z,58.63
2022-09-01T14:37:45.670Z,59.49
2022-09-01T14:40:16.959Z,58.63
2022-09-01T14:42:49.449Z,59.37
2022-09-01T14:45:19.626Z,60.60
2022-09-01T14:47:50.917Z,63.48
2022-09-01T14:50:22.935Z,62.61
2022-09-01T14:52:54.459Z,58.76
2022-09-01T14:55:24.063Z,58.26
2022-09-01T14:57:53.030Z,57.21
2022-09-01T15:00:22.135Z,58.24
2022-09-01T15:02:52.093Z,56.45
2022-09-01T15:05:20.624Z,56.48
2022-09-01T15:07:49.029Z,55.52
2022-09-01T15:10:24.816Z,56.13
2022-09-01T15:12:55.490Z,55.92
2022-09-01T15:15:24.500Z,55.16
2022-09-01T15:17:54.845Z,54.23
2022-09-01T15:20:41.548Z,55.02
2022-09-01T15:23:11.438Z,55.87
2022-09-01T15:25:39.914Z,53.84
2022-09-01T15:28:08.298Z,53.71
2022-09-01T15:30:37.072Z,54.75
2022-09-01T15:33:10.882Z,55.40
2022-09-01T15:35:43.136Z,59.57
2022-09-01T15:38:13.441Z,61.33
2022-09-01T15:40:45.720Z,61.79
2022-09-01T15:43:23.766Z,62.09
2022-09-01T15:45:52.147Z,61.99
2022-09-01T15:48:21.995Z,63.15
2022-09-01T15:50:50.788Z,63.75
2022-09-01T15:53:19.318Z,62.02
2022-09-01T15:55:49.679Z,60.36
2022-09-01T15:58:20.253Z,58.00
2022-09-01T16:00:48.762Z,58.16
2022-09-01T16:03:17.130Z,58.75
2022-09-01T16:05:47.151Z,60.37
2022-09-01T16:08:15.606Z,61.21
2022-09-01T16:10:44.067Z,63.56
2022-09-01T16:13:13.159Z,63.54
2022-09-01T16:15:47.596Z,60.27
2022-09-01T16:18:33.711Z,62.32
2022-09-01T16:21:12.615Z,60.94
2022-09-01T16:23:45.099Z,60.34
2022-09-01T16:26:13.472Z,59.57
2022-09-01T16:28:46.190Z,61.39
2022-09-01T16:31:20.959Z,60.44
2022-09-01T16:33:52.252Z,59.74
2022-09-01T16:36:34.757Z,57.32
2022-09-01T16:39:14.391Z,57.45
2022-09-01T16:41:57.161Z,54.50
2022-09-01T16:44:38.561Z,52.91
2022-09-01T16:47:21.498Z,53.32
2022-09-01T16:49:56.827Z,52.81
2022-09-01T16:52:30.190Z,52.44
2022-09-01T16:55:16.652Z,52.04
2022-09-01T16:57:59.419Z,53.68
2022-09-01T17:00:41.610Z,58.17
2022-09-01T17:03:19.328Z,57.54
2022-09-01T17:05:56.220Z,59.55
2022-09-01T17:08:31.172Z,60.35
2022-09-01T17:11:07.568Z,61.84
2022-09-01T17:13:40.207Z,60.96
2022-09-01T17:16:12.318Z,62.47
2022-09-01T17:18:44.446Z,64.88
2022-09-01T17:21:18.016Z,64.05
2022-09-01T17:23:56.335Z,63.42
2022-09-01T17:26:27.399Z,64.40
2022-09-01T17:29:00.018Z,65.08
2022-09-01T17:31:52.170Z,64.01
2022-09-01T17:34:33.979Z,63.45
2022-09-01T17:37:15.020Z,64.44
2022-09-01T17:39:55.891Z,68.10
2022-09-01T17:42:32.713Z,64.87
2022-09-01T17:45:13.081Z,65.10
2022-09-01T17:47:53.414Z,66.68
2022-09-01T17:50:26.329Z,66.74
2022-09-01T17:53:10.026Z,66.20
2022-09-01T17:55:50.330Z,66.87
2022-09-01T17:58:32.467Z,66.22
2022-09-01T18:01:05.741Z,66.42
2022-09-01T18:03:47.569Z,67.66
2022-09-01T18:06:24.029Z,67.18
2022-09-01T18:08:57.036Z,66.65
2022-09-01T18:11:35.818Z,66.89
2022-09-01T18:14:09.853Z,66.98
2022-09-01T18:16:48.506Z,68.13
2022-09-01T18:19:20.672Z,69.81
2022-09-01T18:21:53.201Z,69.75
2022-09-01T18:24:26.328Z,69.71
2022-09-01T18:26:56.071Z,68.95
2022-09-01T18:29:29.811Z,69.79
2022-09-01T18:32:17.998Z,68.97
2022-09-01T18:35:13.417Z,69.65
2022-09-01T18:37:55.403Z,67.97
2022-09-01T18:40:31.935Z,71.00
2022-09-01T18:43:14.382Z,69.20
2022-09-01T18:45:49.460Z,70.00
2022-09-01T18:48:26.539Z,69.97
2022-09-01T18:50:59.261Z,69.93
2022-09-01T18:53:36.031Z,71.00
2022-09-01T18:56:13.890Z,71.87
2022-09-01T18:58:54.265Z,72.63
2022-09-01T19:01:33.570Z,71.77
2022-09-01T19:04:14.153Z,72.39
2022-09-01T19:06:53.556Z,73.87
2022-09-01T19:09:29.156Z,72.73
2022-09-01T19:12:10.580Z,73.79
2022-09-01T19:14:49.804Z,73.51
2022-09-01T19:17:35.549Z,75.21
2022-09-01T19:20:10.828Z,76.04
2022-09-01T19:22:46.286Z,74.67
2022-09-01T19:25:36.402Z,75.45
2022-09-01T19:28:12.677Z,74.93
2022-09-01T19:30:50.111Z,75.53
2022-09-01T19:33:24.460Z,76.62
2022-09-01T19:35:57.184Z,76.29
2022-09-01T19:38:29.103Z,75.83
2022-09-01T19:41:07.863Z,76.40
2022-09-01T19:43:42.919Z,74.93
2022-09-01T19:46:22.405Z,75.98
2022-09-01T19:48:58.272Z,75.74
2022-09-01T19:51:30.965Z,76.82
2022-09-01T19:54:04.717Z,77.29
2022-09-01T19:56:39.910Z,74.95
2022-09-01T19:59:19.907Z,77.76
2022-09-01T20:01:59.337Z,76.31
2022-09-01T20:04:38.405Z,78.30
2022-09-01T20:07:11.533Z,78.64
2022-09-01T20:09:47.185Z,79.98
2022-09-01T20:12:23.576Z,79.68
2022-09-01T20:15:07.950Z,80.97
2022-09-01T20:17:43.938Z,82.73
2022-09-01T20:20:14.890Z,78.39
2022-09-01T20:22:53.817Z,78.23
2022-09-01T20:25:27.294Z,81.28
2022-09-01T20:28:01.112Z,81.50
2022-09-01T20:30:37.140Z,80.75
2022-09-01T20:33:16.132Z,81.54
2022-09-01T20:35:48.388Z,80.40
2022-09-01T20:38:39.546Z,79.20
2022-09-01T20:41:18.120Z,81.14
2022-09-01T20:43:51.410Z,80.47
2022-09-01T20:46:21.058Z,82.46
2022-09-01T20:48:51.488Z,83.48
2022-09-01T20:51:27.626Z,84.04
2022-09-01T20:54:18.212Z,85.29
2022-09-01T20:56:53.170Z,86.70
2022-09-01T20:59:30.791Z,86.04
2022-09-01T21:02:11.289Z,84.43
2022-09-01T21:04:51.128Z,84.09
2022-09-01T21:07:21.797Z,86.38
2022-09-01T21:09:59.750Z,85.13
2022-09-01T21:12:36.479Z,82.47
2022-09-01T21:15:16.905Z,81.75
2022-09-01T21:17:55.321Z,82.02
2022-09-01T21:20:32.726Z,84.47
2022-09-01T21:23:02.152Z,84.29
2022-09-01T21:25:37.625Z,84.03
2022-09-01T21:28:08.281Z,83.92
2022-09-01T21:30:37.353Z,82.81
2022-09-01T21:33:06.276Z,83.45
2022-09-01T21:35:35.917Z,83.99
2022-09-01T21:38:04.254Z,85.10
2022-09-01T21:40:32.683Z,85.20
2022-09-01T21:43:03.934Z,83.24
2022-09-01T21:45:33.832Z,85.19
2022-09-01T21:48:03.252Z,85.71
2022-09-01T21:50:31.824Z,84.10
2022-09-01T21:53:01.778Z,83.37
2022-09-01T21:55:30.909Z,83.52
2022-09-01T21:58:00.531Z,84.36
2022-09-01T22:00:31.288Z,83.68
2022-09-01T22:03:01.853Z,83.49
2022-09-01T22:05:31.172Z,83.94
2022-09-01T22:08:01.582Z,83.99
2022-09-01T22:10:31.656Z,83.65
2022-09-01T22:13:03.513Z,83.94
2022-09-01T22:15:32.716Z,83.32
2022-09-01T22:18:06.014Z,83.20
2022-09-01T22:20:35.210Z,84.64
2022-09-01T22:23:05.131Z,84.08
2022-09-01T22:25:35.604Z,84.92
2022-09-01T22:28:06.505Z,85.00
2022-09-01T22:30:36.080Z,85.19
2022-09-01T22:33:07.848Z,86.33
2022-09-01T22:35:40.596Z,86.26
2022-09-01T22:38:11.526Z,84.64
2022-09-01T22:40:45.091Z,84.42
2022-09-01T22:43:17.065Z,85.22
2022-09-01T22:45:46.464Z,86.00
2022-09-01T22:48:15.420Z,85.06
2022-09-01T22:50:45.137Z,86.05
2022-09-01T22:53:15.540Z,85.13
2022-09-01T22:55:48.119Z,86.72
2022-09-01T22:58:17.632Z,85.64
2022-09-01T23:00:49.901Z,85.76
2022-09-01T23:03:20.592Z,85.87
2022-09-01T23:05:50.192Z,85.34
2022-09-01T23:08:19.867Z,85.77
2022-09-01T23:10:48.133Z,84.99
2022-09-01T23:13:17.308Z,84.61
2022-09-01T23:15:45.659Z,84.44
2022-09-01T23:18:14.153Z,84.86
2022-09-01T23:20:42.445Z,84.97
2022-09-01T23:23:10.776Z,85.86
2022-09-01T23:25:43.675Z,86.17
2022-09-01T23:28:14.386Z,86.27
2022-09-01T23:30:42.875Z,86.35
2022-09-01T23:33:11.134Z,85.50
2022-09-01T23:35:42.991Z,87.30
2022-09-01T23:38:11.790Z,87.08
2022-09-01T23:40:43.183Z,87.78
2022-09-01T23:43:11.689Z,86.80
2022-09-01T23:45:41.044Z,86.79
2022-09-01T23:48:09.804Z,87.28
2022-09-01T23:50:44.120Z,89.01
2022-09-01T23:53:12.528Z,88.35
2022-09-01T23:55:45.386Z,88.80
2022-09-01T23:58:14.228Z,89.36
